createdAt,value
2022-07-29T00:00:16.653Z,21.87
2022-07-29T00:01:49.344Z,21.84
2022-07-29T00:03:21.470Z,21.82
2022-07-29T00:04:53.728Z,21.78
2022-07-29T00:06:25.755Z,21.72
2022-07-29T00:07:57.956Z,21.62
2022-07-29T00:09:29.998Z,21.58
2022-07-29T00:11:02.047Z,21.54
2022-07-29T00:12:34.078Z,21.52
2022-07-29T00:14:06.810Z,21.47
2022-07-29T00:15:39.013Z,21.46
2022-07-29T00:17:11.138Z,21.43
2022-07-29T00:18:43.527Z,21.41
2022-07-29T00:20:15.599Z,21.37
2022-07-29T00:21:47.721Z,21.35
2022-07-29T00:23:19.793Z,21.32
2022-07-29T00:24:52.046Z,21.30
2022-07-29T00:26:24.110Z,21.27
2022-07-29T00:27:56.112Z,21.28
2022-07-29T00:29:35.512Z,21.25
2022-07-29T00:31:07.851Z,21.21
2022-07-29T00:32:39.918Z,21.19
2022-07-29T00:34:32.020Z,21.16
2022-07-29T00:36:04.441Z,21.13
2022-07-29T00:37:36.690Z,21.10
2022-07-29T00:39:08.772Z,21.07
2022-07-29T00:40:43.876Z,21.02
2022-07-29T00:42:17.656Z,21.00
2022-07-29T00:43:50.000Z,21.01
2022-07-29T00:45:23.365Z,21.00
2022-07-29T00:46:55.464Z,20.99
2022-07-29T00:48:27.664Z,21.01
2022-07-29T00:49:59.749Z,21.02
2022-07-29T00:51:31.992Z,21.01
2022-07-29T00:53:05.765Z,21.00
2022-07-29T00:54:44.275Z,20.97
2022-07-29T00:56:17.045Z,20.94
2022-07-29T00:57:49.215Z,20.91
2022-07-29T00:59:21.302Z,20.89
2022-07-29T01:00:53.813Z,20.83
2022-07-29T01:02:25.929Z,20.81
2022-07-29T01:03:58.024Z,20.78
2022-07-29T01:05:48.137Z,20.77
2022-07-29T01:07:24.644Z,20.78
2022-07-29T01:08:56.982Z,20.79
2022-07-29T01:10:29.479Z,20.77
2022-07-29T01:12:01.896Z,20.74
2022-07-29T01:13:34.621Z,20.70
2022-07-29T01:15:08.224Z,20.65
2022-07-29T01:17:13.924Z,20.57
2022-07-29T01:18:51.250Z,20.52
2022-07-29T01:20:31.264Z,20.47
2022-07-29T01:22:32.769Z,20.47
2022-07-29T01:24:29.050Z,20.48
2022-07-29T01:26:22.545Z,20.47
2022-07-29T01:28:16.937Z,20.47
2022-07-29T01:29:57.000Z,20.43
2022-07-29T01:31:58.460Z,20.39
2022-07-29T01:33:52.070Z,20.34
2022-07-29T01:35:35.668Z,20.30
2022-07-29T01:37:10.539Z,20.26
2022-07-29T01:38:44.666Z,20.25
2022-07-29T01:40:30.214Z,20.27
2022-07-29T01:42:22.582Z,20.25
2022-07-29T01:44:01.765Z,20.24
2022-07-29T01:45:54.872Z,20.23
2022-07-29T01:47:52.585Z,20.23
2022-07-29T01:49:30.412Z,20.22
2022-07-29T01:51:21.253Z,20.20
2022-07-29T01:53:01.755Z,20.16
2022-07-29T01:55:00.660Z,20.10
2022-07-29T01:56:35.025Z,20.09
2022-07-29T01:58:07.742Z,20.09
2022-07-29T01:59:40.391Z,20.08
2022-07-29T02:01:14.143Z,20.10
2022-07-29T02:02:48.321Z,20.08
2022-07-29T02:04:29.202Z,20.07
2022-07-29T02:07:42.006Z,20.12
2022-07-29T02:09:15.145Z,20.12
2022-07-29T02:10:49.046Z,20.15
2022-07-29T02:12:22.244Z,20.13
2022-07-29T02:13:55.607Z,20.13
2022-07-29T02:15:29.034Z,20.15
2022-07-29T02:17:02.150Z,20.18
2022-07-29T02:18:35.016Z,20.20
2022-07-29T02:20:08.484Z,20.25
2022-07-29T02:21:42.200Z,20.26
2022-07-29T02:23:16.462Z,20.27
2022-07-29T02:24:49.143Z,20.28
2022-07-29T02:26:23.432Z,20.29
2022-07-29T02:27:55.739Z,20.25
2022-07-29T02:29:29.431Z,20.22
2022-07-29T02:31:03.786Z,20.19
2022-07-29T02:32:37.209Z,20.14
2022-07-29T02:34:13.659Z,20.08
2022-07-29T02:35:48.071Z,20.07
2022-07-29T02:37:20.247Z,20.05
2022-07-29T02:38:52.947Z,20.02
2022-07-29T02:40:32.400Z,20.04
2022-07-29T02:42:09.670Z,20.00
2022-07-29T02:43:43.705Z,19.96
2022-07-29T02:45:15.763Z,19.92
2022-07-29T02:47:03.899Z,19.92
2022-07-29T02:49:18.184Z,19.92
2022-07-29T02:50:52.179Z,19.90
2022-07-29T02:52:59.893Z,19.87
2022-07-29T02:54:40.793Z,19.85
2022-07-29T02:56:15.502Z,19.81
2022-07-29T02:58:02.425Z,19.76
2022-07-29T02:59:36.138Z,19.74
2022-07-29T03:01:21.840Z,19.72
2022-07-29T03:02:55.421Z,19.70
2022-07-29T03:04:29.860Z,19.68
2022-07-29T03:06:03.146Z,19.67
2022-07-29T03:07:35.459Z,19.69
2022-07-29T03:09:12.893Z,19.68
2022-07-29T03:10:46.881Z,19.67
2022-07-29T03:12:18.855Z,19.70
2022-07-29T03:13:51.377Z,19.67
2022-07-29T03:15:24.778Z,19.67
2022-07-29T03:16:56.975Z,19.64
2022-07-29T03:18:29.095Z,19.65
2022-07-29T03:20:01.502Z,19.64
2022-07-29T03:21:33.784Z,19.63
2022-07-29T03:23:06.064Z,19.60
2022-07-29T03:24:38.432Z,19.61
2022-07-29T03:26:10.551Z,19.63
2022-07-29T03:27:43.428Z,19.64
2022-07-29T03:29:15.450Z,19.64
2022-07-29T03:30:48.222Z,19.63
2022-07-29T03:32:23.723Z,19.66
2022-07-29T03:33:56.169Z,19.66
2022-07-29T03:35:28.336Z,19.69
2022-07-29T03:37:00.344Z,19.72
2022-07-29T03:38:35.317Z,19.74
2022-07-29T03:40:09.950Z,19.76
2022-07-29T03:41:43.293Z,19.75
2022-07-29T03:43:15.202Z,19.79
2022-07-29T03:44:49.237Z,19.80
2022-07-29T03:46:23.703Z,19.80
2022-07-29T03:48:00.841Z,19.80
2022-07-29T03:49:34.287Z,19.79
2022-07-29T03:51:06.845Z,19.83
2022-07-29T03:52:39.577Z,19.88
2022-07-29T03:54:12.366Z,19.90
2022-07-29T03:55:50.210Z,19.95
2022-07-29T03:57:25.573Z,19.97
2022-07-29T03:58:57.777Z,19.97
2022-07-29T04:00:30.247Z,19.98
2022-07-29T04:02:04.291Z,20.01
2022-07-29T04:03:36.533Z,20.04
2022-07-29T04:05:14.072Z,20.09
2022-07-29T04:06:48.263Z,20.12
2022-07-29T04:08:20.622Z,20.15
2022-07-29T04:09:52.836Z,20.18
2022-07-29T04:11:24.976Z,20.22
2022-07-29T04:12:57.026Z,20.26
2022-07-29T04:14:29.098Z,20.31
2022-07-29T04:16:01.166Z,20.31
2022-07-29T04:17:33.327Z,20.36
2022-07-29T04:19:05.449Z,20.38
2022-07-29T04:20:37.512Z,20.40
2022-07-29T04:22:09.541Z,20.45
2022-07-29T04:23:52.832Z,20.46
2022-07-29T04:25:25.984Z,20.47
2022-07-29T04:26:58.018Z,20.50
2022-07-29T04:28:30.134Z,20.50
2022-07-29T04:30:02.234Z,20.51
2022-07-29T04:31:34.295Z,20.53
2022-07-29T04:33:08.380Z,20.57
2022-07-29T04:34:40.455Z,20.59
2022-07-29T04:36:28.532Z,20.64
2022-07-29T04:38:02.322Z,20.67
2022-07-29T04:39:34.604Z,20.70
2022-07-29T04:41:08.235Z,20.70
2022-07-29T04:42:46.451Z,20.72
2022-07-29T04:44:20.128Z,20.75
2022-07-29T04:45:52.307Z,20.79
2022-07-29T04:47:24.760Z,20.85
2022-07-29T04:48:57.061Z,20.91
2022-07-29T04:50:29.270Z,20.96
2022-07-29T04:52:01.500Z,21.02
2022-07-29T04:53:33.655Z,21.08
2022-07-29T04:55:06.943Z,21.12
2022-07-29T04:56:38.859Z,21.17
2022-07-29T04:58:11.072Z,21.18
2022-07-29T04:59:43.109Z,21.19
2022-07-29T05:01:17.071Z,21.23
2022-07-29T05:02:49.313Z,21.24
2022-07-29T05:04:21.531Z,21.29
2022-07-29T05:05:53.687Z,21.35
2022-07-29T05:07:25.795Z,21.38
2022-07-29T05:08:57.818Z,21.40
2022-07-29T05:10:30.151Z,21.42
2022-07-29T05:12:02.703Z,21.44
2022-07-29T05:13:46.321Z,21.49
2022-07-29T05:15:19.545Z,21.55
2022-07-29T05:16:52.434Z,21.59
2022-07-29T05:18:26.168Z,21.66
2022-07-29T05:19:58.511Z,21.71
2022-07-29T05:21:30.738Z,21.74
2022-07-29T05:23:04.259Z,21.79
2022-07-29T05:24:36.312Z,21.83
2022-07-29T05:26:08.828Z,21.87
2022-07-29T05:27:41.100Z,21.89
2022-07-29T05:29:43.640Z,21.94
2022-07-29T05:31:05.549Z,21.98
2022-07-29T05:32:37.767Z,22.03
2022-07-29T05:34:09.807Z,22.06
2022-07-29T05:35:41.855Z,22.08
2022-07-29T05:37:16.740Z,22.09
2022-07-29T05:38:49.093Z,22.10
2022-07-29T05:40:21.784Z,22.11
2022-07-29T05:41:54.186Z,22.15
2022-07-29T05:43:27.267Z,22.16
2022-07-29T05:44:59.701Z,22.21
2022-07-29T05:46:32.213Z,22.23
2022-07-29T05:48:05.587Z,22.28
2022-07-29T05:49:38.120Z,22.30
2022-07-29T05:51:10.198Z,22.31
2022-07-29T05:52:42.292Z,22.34
2022-07-29T05:54:14.626Z,22.36
2022-07-29T05:55:47.367Z,22.38
2022-07-29T05:57:23.558Z,22.40
2022-07-29T05:58:55.983Z,22.45
2022-07-29T06:00:28.597Z,22.47
2022-07-29T06:02:01.992Z,22.51
2022-07-29T06:03:34.400Z,22.54
2022-07-29T06:05:07.243Z,22.59
2022-07-29T06:06:47.662Z,22.62
2022-07-29T06:08:20.040Z,22.66
2022-07-29T06:09:52.436Z,22.69
2022-07-29T06:11:24.698Z,22.73
2022-07-29T06:12:57.090Z,22.78
2022-07-29T06:14:29.819Z,22.80
2022-07-29T06:16:02.050Z,22.88
2022-07-29T06:17:34.515Z,22.94
2022-07-29T06:19:06.935Z,23.00
2022-07-29T06:20:39.300Z,23.04
2022-07-29T06:22:11.779Z,23.09
2022-07-29T06:23:44.029Z,23.14
2022-07-29T06:25:16.558Z,23.16
2022-07-29T06:26:49.040Z,23.18
2022-07-29T06:28:21.642Z,23.21
2022-07-29T06:29:53.896Z,23.24
2022-07-29T06:31:26.304Z,23.23
2022-07-29T06:32:58.538Z,23.28
2022-07-29T06:34:30.881Z,23.32
2022-07-29T06:36:06.069Z,23.38
2022-07-29T06:37:38.348Z,23.43
2022-07-29T06:39:11.658Z,23.47
2022-07-29T06:41:04.082Z,23.54
2022-07-29T06:42:36.305Z,23.61
2022-07-29T06:44:08.676Z,23.68
2022-07-29T06:45:42.764Z,23.72
2022-07-29T06:47:15.233Z,23.73
2022-07-29T06:48:49.317Z,23.78
2022-07-29T06:50:23.034Z,23.80
2022-07-29T06:51:57.089Z,23.89
2022-07-29T06:53:30.306Z,23.96
2022-07-29T06:55:02.297Z,24.07
2022-07-29T06:56:40.283Z,24.13
2022-07-29T06:58:13.377Z,24.25
2022-07-29T06:59:45.773Z,24.33
2022-07-29T07:01:18.120Z,24.45
2022-07-29T07:02:50.307Z,24.48
2022-07-29T07:04:22.481Z,24.51
2022-07-29T07:05:55.763Z,24.61
2022-07-29T07:07:28.174Z,24.68
2022-07-29T07:09:00.542Z,24.72
2022-07-29T07:10:34.251Z,24.78
2022-07-29T07:12:06.531Z,24.82
2022-07-29T07:13:38.920Z,24.88
2022-07-29T07:15:11.934Z,24.93
2022-07-29T07:16:44.679Z,24.98
2022-07-29T07:18:18.083Z,25.04
2022-07-29T07:19:50.192Z,25.11
2022-07-29T07:21:22.492Z,25.12
2022-07-29T07:22:55.089Z,25.19
2022-07-29T07:24:27.427Z,25.23
2022-07-29T07:25:59.721Z,25.27
2022-07-29T07:27:32.122Z,25.28
2022-07-29T07:29:04.508Z,25.34
2022-07-29T07:30:37.023Z,25.38
2022-07-29T07:32:09.453Z,25.36
2022-07-29T07:33:41.887Z,25.39
2022-07-29T07:35:14.483Z,25.38
2022-07-29T07:36:46.674Z,25.41
2022-07-29T07:38:19.184Z,25.45
2022-07-29T07:39:52.053Z,25.53
2022-07-29T07:41:24.995Z,25.58
2022-07-29T07:42:57.342Z,25.65
2022-07-29T07:44:29.778Z,25.72
2022-07-29T07:46:02.191Z,25.82
2022-07-29T07:47:34.708Z,25.92
2022-07-29T07:49:06.978Z,25.99
2022-07-29T07:50:39.388Z,26.07
2022-07-29T07:52:11.751Z,26.15
2022-07-29T07:53:46.217Z,26.24
2022-07-29T07:55:19.065Z,26.27
2022-07-29T07:56:53.099Z,26.33
2022-07-29T07:58:25.852Z,26.40
2022-07-29T07:59:58.127Z,26.47
2022-07-29T08:01:50.440Z,26.53
2022-07-29T08:03:24.505Z,26.65
2022-07-29T08:04:56.841Z,26.77
2022-07-29T08:06:29.261Z,26.87
2022-07-29T08:08:01.673Z,26.98
2022-07-29T08:09:34.713Z,27.04
2022-07-29T08:11:09.739Z,27.11
2022-07-29T08:12:42.479Z,27.23
2022-07-29T08:14:15.534Z,27.33
2022-07-29T08:15:48.869Z,27.38
2022-07-29T08:17:21.288Z,27.39
2022-07-29T08:18:58.184Z,27.41
2022-07-29T08:20:31.209Z,27.46
2022-07-29T08:22:03.660Z,27.51
2022-07-29T08:23:51.498Z,27.50
2022-07-29T08:25:26.933Z,27.53
2022-07-29T08:26:59.675Z,27.56
2022-07-29T08:28:32.690Z,27.59
2022-07-29T08:30:05.129Z,27.64
2022-07-29T08:31:38.622Z,27.66
2022-07-29T08:33:11.005Z,27.66
2022-07-29T08:34:43.865Z,27.67
2022-07-29T08:36:16.177Z,27.66
2022-07-29T08:37:49.605Z,27.67
2022-07-29T08:39:22.132Z,27.70
2022-07-29T08:40:54.839Z,27.68
2022-07-29T08:42:27.266Z,27.70
2022-07-29T08:43:59.755Z,27.72
2022-07-29T08:45:44.275Z,27.77
2022-07-29T08:47:19.724Z,27.72
2022-07-29T08:48:52.156Z,27.82
2022-07-29T08:50:24.526Z,27.85
2022-07-29T08:51:57.742Z,27.91
2022-07-29T08:53:30.712Z,27.94
2022-07-29T08:55:03.628Z,27.94
2022-07-29T08:56:36.115Z,27.98
2022-07-29T08:58:08.926Z,28.00
2022-07-29T08:59:44.738Z,28.05
2022-07-29T09:01:19.547Z,28.13
2022-07-29T09:02:58.296Z,28.22
2022-07-29T09:04:35.987Z,28.30
2022-07-29T09:06:08.430Z,28.37
2022-07-29T09:07:41.077Z,28.45
2022-07-29T09:09:15.141Z,28.49
2022-07-29T09:10:47.750Z,28.58
2022-07-29T09:12:28.759Z,28.65
2022-07-29T09:14:02.602Z,28.74
2022-07-29T09:15:35.029Z,28.82
2022-07-29T09:17:08.113Z,28.92
2022-07-29T09:18:45.702Z,29.01
2022-07-29T09:20:20.810Z,29.06
2022-07-29T09:21:59.632Z,29.11
2022-07-29T09:23:32.003Z,29.16
2022-07-29T09:25:07.649Z,29.22
2022-07-29T09:26:45.267Z,29.27
2022-07-29T09:28:18.777Z,29.32
2022-07-29T09:30:28.887Z,29.33
2022-07-29T09:32:08.678Z,29.33
2022-07-29T09:33:43.400Z,29.29
2022-07-29T09:35:21.538Z,29.34
2022-07-29T09:36:56.059Z,29.37
2022-07-29T09:38:28.666Z,29.40
2022-07-29T09:40:01.446Z,29.45
2022-07-29T09:41:56.130Z,29.54
2022-07-29T09:43:28.918Z,29.61
2022-07-29T09:45:01.488Z,29.62
2022-07-29T09:46:34.057Z,29.64
2022-07-29T09:48:24.017Z,29.71
2022-07-29T09:50:00.845Z,29.70
2022-07-29T09:51:38.556Z,29.74
2022-07-29T09:53:12.076Z,29.83
2022-07-29T09:54:47.409Z,29.85
2022-07-29T09:56:19.782Z,29.87
2022-07-29T09:57:52.186Z,29.93
2022-07-29T09:59:27.863Z,29.97
2022-07-29T10:01:00.268Z,30.05
2022-07-29T10:02:33.927Z,30.15
2022-07-29T10:04:06.549Z,30.19
2022-07-29T10:05:38.868Z,30.25
2022-07-29T10:07:11.175Z,30.30
2022-07-29T10:08:43.583Z,30.34
2022-07-29T10:10:27.133Z,30.39
2022-07-29T10:12:10.569Z,30.40
2022-07-29T10:13:43.675Z,30.42
2022-07-29T10:15:17.484Z,30.46
2022-07-29T10:16:50.047Z,30.46
2022-07-29T10:18:22.368Z,30.44
2022-07-29T10:19:54.889Z,30.51
2022-07-29T10:21:36.253Z,30.56
2022-07-29T10:23:10.395Z,30.63
2022-07-29T10:24:42.926Z,30.73
2022-07-29T10:26:16.031Z,30.81
2022-07-29T10:27:48.952Z,30.88
2022-07-29T10:29:21.488Z,30.88
2022-07-29T10:31:02.103Z,30.89
2022-07-29T10:32:37.185Z,30.84
2022-07-29T10:34:18.418Z,30.85
2022-07-29T10:36:02.342Z,30.85
2022-07-29T10:37:45.934Z,30.91
2022-07-29T10:39:45.205Z,30.96
2022-07-29T10:41:32.384Z,30.97
2022-07-29T10:43:24.856Z,30.99
2022-07-29T10:44:57.734Z,30.96
2022-07-29T10:46:37.247Z,31.00
2022-07-29T10:48:10.587Z,30.99
2022-07-29T10:49:57.606Z,31.06
2022-07-29T10:51:52.631Z,31.17
2022-07-29T10:53:25.685Z,31.22
2022-07-29T10:55:01.937Z,31.30
2022-07-29T10:56:35.347Z,31.37
2022-07-29T10:58:15.161Z,31.46
2022-07-29T10:59:53.295Z,31.54
2022-07-29T11:01:37.442Z,31.63
2022-07-29T11:03:12.396Z,31.64
2022-07-29T11:04:48.588Z,31.60
2022-07-29T11:06:26.416Z,31.66
2022-07-29T11:08:20.447Z,31.81
2022-07-29T11:10:11.959Z,31.81
2022-07-29T11:11:51.355Z,31.70
2022-07-29T11:13:53.393Z,31.70
2022-07-29T11:15:28.599Z,31.75
2022-07-29T11:17:08.556Z,31.76
2022-07-29T11:19:13.254Z,31.82
2022-07-29T11:20:49.843Z,31.86
2022-07-29T11:22:46.066Z,31.90
2022-07-29T11:24:35.946Z,31.86
2022-07-29T11:26:12.760Z,31.79
2022-07-29T11:27:48.370Z,31.87
2022-07-29T11:29:23.694Z,31.91
2022-07-29T11:30:56.746Z,31.85
2022-07-29T11:32:40.255Z,31.97
2022-07-29T11:34:31.607Z,32.09
2022-07-29T11:36:16.792Z,32.15
2022-07-29T11:38:38.692Z,32.23
2022-07-29T11:40:15.652Z,32.18
2022-07-29T11:41:48.185Z,32.18
2022-07-29T11:43:53.509Z,32.32
2022-07-29T11:47:07.231Z,32.30
2022-07-29T11:48:43.586Z,32.45
2022-07-29T11:50:33.528Z,32.44
2022-07-29T11:52:07.211Z,32.40
2022-07-29T11:53:48.764Z,32.45
2022-07-29T11:55:32.600Z,32.53
2022-07-29T11:57:08.683Z,32.59
2022-07-29T11:58:41.318Z,32.69
2022-07-29T12:00:16.282Z,32.76
2022-07-29T12:02:12.006Z,32.80
2022-07-29T12:04:04.763Z,32.81
2022-07-29T12:05:48.070Z,32.83
2022-07-29T12:07:33.694Z,32.82
2022-07-29T12:09:11.237Z,32.87
2022-07-29T12:10:49.278Z,32.92
2022-07-29T12:12:22.387Z,33.02
2022-07-29T12:13:56.996Z,33.11
2022-07-29T12:15:39.495Z,33.20
2022-07-29T12:17:30.513Z,33.28
2022-07-29T12:19:06.077Z,33.32
2022-07-29T12:20:38.531Z,33.33
2022-07-29T12:22:11.113Z,33.24
2022-07-29T12:24:01.887Z,33.29
2022-07-29T12:25:38.541Z,33.34
2022-07-29T12:27:10.891Z,33.37
2022-07-29T12:28:44.712Z,33.40
2022-07-29T12:30:19.611Z,33.42
2022-07-29T12:31:57.736Z,33.46
2022-07-29T12:33:31.295Z,33.47
2022-07-29T12:35:06.775Z,33.52
2022-07-29T12:36:39.468Z,33.58
2022-07-29T12:38:13.805Z,33.64
2022-07-29T12:39:46.769Z,33.67
2022-07-29T12:41:19.250Z,33.66
2022-07-29T12:43:11.649Z,33.68
2022-07-29T12:44:51.536Z,33.69
2022-07-29T12:46:24.211Z,33.74
2022-07-29T12:47:56.478Z,33.77
2022-07-29T12:49:28.789Z,33.79
2022-07-29T12:51:03.594Z,33.84
2022-07-29T12:52:36.690Z,33.80
2022-07-29T12:54:17.383Z,33.76
2022-07-29T12:55:55.969Z,33.63
2022-07-29T12:57:29.104Z,33.58
2022-07-29T12:59:01.520Z,33.54
2022-07-29T13:00:34.021Z,33.57
2022-07-29T13:02:06.435Z,33.51
2022-07-29T13:03:59.797Z,33.58
2022-07-29T13:05:49.094Z,33.64
2022-07-29T13:07:55.416Z,33.65
2022-07-29T13:09:23.925Z,33.75
2022-07-29T13:10:56.328Z,33.83
2022-07-29T13:12:29.507Z,33.87
2022-07-29T13:15:41.547Z,33.94
2022-07-29T13:17:17.114Z,33.98
2022-07-29T13:18:49.740Z,34.00
2022-07-29T13:20:26.222Z,34.07
2022-07-29T13:21:59.080Z,34.07
2022-07-29T13:23:31.665Z,34.09
2022-07-29T13:25:11.316Z,34.15
2022-07-29T13:26:43.470Z,34.16
2022-07-29T13:28:15.990Z,34.12
2022-07-29T13:29:48.617Z,34.03
2022-07-29T13:31:21.061Z,33.91
2022-07-29T13:32:54.421Z,33.79
2022-07-29T13:34:27.011Z,33.67
2022-07-29T13:35:59.237Z,33.66
2022-07-29T13:37:32.026Z,33.69
2022-07-29T13:39:05.213Z,33.74
2022-07-29T13:40:38.090Z,33.78
2022-07-29T13:42:11.166Z,33.84
2022-07-29T13:43:43.494Z,33.91
2022-07-29T13:45:15.788Z,33.98
2022-07-29T13:46:48.150Z,34.05
2022-07-29T13:48:21.027Z,34.13
2022-07-29T13:49:53.254Z,34.23
2022-07-29T13:51:25.515Z,34.27
2022-07-29T13:52:57.817Z,34.32
2022-07-29T13:54:30.308Z,34.35
2022-07-29T13:56:02.630Z,34.30
2022-07-29T13:57:35.033Z,34.14
2022-07-29T13:59:07.447Z,33.95
2022-07-29T14:00:39.996Z,33.82
2022-07-29T14:02:13.639Z,33.64
2022-07-29T14:03:48.076Z,33.45
2022-07-29T14:05:20.678Z,33.32
2022-07-29T14:06:53.192Z,33.17
2022-07-29T14:08:25.608Z,33.04
2022-07-29T14:09:58.377Z,32.93
2022-07-29T14:11:30.774Z,32.85
2022-07-29T14:13:03.442Z,32.77
2022-07-29T14:14:37.840Z,32.68
2022-07-29T14:16:10.458Z,32.57
2022-07-29T14:17:42.886Z,32.48
2022-07-29T14:19:15.320Z,32.39
2022-07-29T14:20:47.865Z,32.32
2022-07-29T14:22:20.624Z,32.25
2022-07-29T14:23:57.682Z,32.19
2022-07-29T14:25:30.344Z,32.16
2022-07-29T14:27:02.702Z,32.07
2022-07-29T14:28:36.925Z,31.99
2022-07-29T14:30:12.925Z,31.92
2022-07-29T14:31:45.414Z,31.84
2022-07-29T14:33:17.849Z,31.76
2022-07-29T14:34:50.287Z,31.69
2022-07-29T14:36:25.507Z,31.59
2022-07-29T14:37:58.713Z,31.50
2022-07-29T14:39:31.912Z,31.40
2022-07-29T14:41:05.104Z,31.33
2022-07-29T14:42:38.446Z,31.30
2022-07-29T14:44:11.170Z,31.20
2022-07-29T14:45:43.417Z,31.11
2022-07-29T14:47:15.881Z,31.00
2022-07-29T14:48:48.323Z,30.82
2022-07-29T14:50:23.289Z,30.45
2022-07-29T14:52:04.992Z,30.06
2022-07-29T14:53:37.443Z,29.56
2022-07-29T14:55:16.507Z,29.33
2022-07-29T14:56:56.652Z,29.08
2022-07-29T14:58:28.988Z,28.97
2022-07-29T15:00:01.307Z,28.70
2022-07-29T15:01:33.831Z,28.19
2022-07-29T15:03:06.902Z,27.87
2022-07-29T15:04:43.870Z,27.64
2022-07-29T15:06:16.189Z,27.24
2022-07-29T15:07:48.495Z,27.07
2022-07-29T15:09:20.824Z,26.95
2022-07-29T15:10:53.248Z,26.79
2022-07-29T15:12:25.350Z,26.66
2022-07-29T15:13:57.697Z,26.53
2022-07-29T15:15:30.213Z,26.44
2022-07-29T15:17:02.578Z,26.32
2022-07-29T15:18:39.117Z,26.25
2022-07-29T15:20:13.156Z,26.08
2022-07-29T15:21:59.547Z,26.02
2022-07-29T15:23:32.415Z,25.89
2022-07-29T15:25:05.095Z,25.77
2022-07-29T15:26:37.567Z,25.79
2022-07-29T15:28:10.355Z,25.81
2022-07-29T15:29:43.554Z,25.86
2022-07-29T15:31:15.806Z,25.92
2022-07-29T15:32:48.308Z,25.89
2022-07-29T15:34:28.537Z,25.79
2022-07-29T15:36:01.189Z,25.77
2022-07-29T15:37:49.004Z,25.82
2022-07-29T15:39:22.904Z,25.89
2022-07-29T15:40:55.261Z,25.93
2022-07-29T15:42:27.685Z,25.96
2022-07-29T15:44:00.270Z,26.00
2022-07-29T15:46:03.694Z,26.05
2022-07-29T15:47:39.119Z,26.08
2022-07-29T15:49:11.539Z,26.11
2022-07-29T15:50:47.205Z,26.16
2022-07-29T15:52:26.107Z,26.20
2022-07-29T15:53:58.893Z,26.08
2022-07-29T15:55:31.261Z,26.21
2022-07-29T15:57:05.545Z,26.34
2022-07-29T15:58:37.976Z,26.44
2022-07-29T16:00:11.911Z,26.55
2022-07-29T16:01:44.347Z,26.59
2022-07-29T16:03:17.007Z,26.62
2022-07-29T16:04:49.617Z,26.61
2022-07-29T16:06:22.617Z,26.67
2022-07-29T16:07:54.989Z,26.68
2022-07-29T16:09:27.391Z,26.70
2022-07-29T16:10:59.740Z,26.71
2022-07-29T16:12:32.106Z,26.71
2022-07-29T16:14:04.972Z,26.69
2022-07-29T16:15:37.377Z,26.70
2022-07-29T16:17:09.758Z,26.72
2022-07-29T16:18:47.250Z,26.74
2022-07-29T16:20:21.234Z,26.72
2022-07-29T16:21:59.542Z,26.62
2022-07-29T16:23:32.773Z,26.55
2022-07-29T16:25:05.701Z,26.47
2022-07-29T16:26:38.136Z,26.37
2022-07-29T16:28:11.736Z,26.31
2022-07-29T16:29:44.346Z,26.26
2022-07-29T16:31:16.865Z,26.22
2022-07-29T16:32:49.564Z,26.20
2022-07-29T16:34:21.915Z,26.16
2022-07-29T16:35:54.246Z,26.10
2022-07-29T16:37:28.724Z,26.03
2022-07-29T16:39:01.331Z,26.01
2022-07-29T16:40:33.941Z,26.01
2022-07-29T16:42:06.613Z,26.00
2022-07-29T16:43:39.342Z,26.00
2022-07-29T16:45:11.980Z,25.98
2022-07-29T16:46:45.624Z,25.92
2022-07-29T16:48:18.788Z,25.87
2022-07-29T16:49:51.526Z,25.85
2022-07-29T16:51:24.227Z,25.86
2022-07-29T16:52:56.895Z,25.89
2022-07-29T16:54:29.378Z,25.88
2022-07-29T16:56:02.366Z,25.87
2022-07-29T16:57:34.797Z,25.88
2022-07-29T16:59:07.110Z,25.90
2022-07-29T17:00:39.562Z,25.92
2022-07-29T17:02:12.822Z,25.93
2022-07-29T17:04:11.268Z,25.96
2022-07-29T17:05:52.751Z,25.94
2022-07-29T17:07:26.986Z,25.94
2022-07-29T17:08:59.387Z,25.94
2022-07-29T17:10:31.713Z,25.91
2022-07-29T17:12:04.333Z,25.91
2022-07-29T17:13:36.630Z,25.91
2022-07-29T17:15:11.586Z,25.91
2022-07-29T17:16:44.104Z,25.85
2022-07-29T17:18:33.290Z,25.80
2022-07-29T17:20:06.475Z,25.79
2022-07-29T17:21:38.629Z,25.81
2022-07-29T17:23:21.115Z,25.79
2022-07-29T17:24:53.811Z,25.78
2022-07-29T17:26:28.230Z,25.78
2022-07-29T17:28:01.305Z,25.79
2022-07-29T17:29:35.440Z,25.79
2022-07-29T17:31:08.011Z,25.81
2022-07-29T17:32:41.231Z,25.78
2022-07-29T17:34:13.455Z,25.79
2022-07-29T17:36:04.777Z,25.76
2022-07-29T17:37:37.388Z,25.76
2022-07-29T17:39:11.822Z,25.77
2022-07-29T17:40:44.250Z,25.71
2022-07-29T17:42:16.735Z,25.67
2022-07-29T17:43:50.134Z,25.60
2022-07-29T17:45:22.525Z,25.53
2022-07-29T17:46:54.937Z,25.49
2022-07-29T17:48:27.554Z,25.45
2022-07-29T17:49:59.985Z,25.42
2022-07-29T17:51:32.462Z,25.42
2022-07-29T17:53:04.907Z,25.39
2022-07-29T17:54:49.711Z,25.41
2022-07-29T17:56:22.482Z,25.41
2022-07-29T17:57:59.727Z,25.41
2022-07-29T17:59:32.256Z,25.43
2022-07-29T18:01:04.949Z,25.41
2022-07-29T18:02:37.975Z,25.33
2022-07-29T18:04:10.385Z,25.31
2022-07-29T18:05:42.908Z,25.24
2022-07-29T18:07:15.477Z,25.19
2022-07-29T18:08:48.261Z,25.17
2022-07-29T18:10:20.642Z,25.12
2022-07-29T18:11:53.161Z,25.06
2022-07-29T18:13:26.863Z,25.03
2022-07-29T18:14:59.154Z,24.98
2022-07-29T18:16:31.555Z,24.92
2022-07-29T18:18:03.970Z,24.89
2022-07-29T18:19:36.227Z,24.85
2022-07-29T18:21:08.611Z,24.81
2022-07-29T18:22:41.107Z,24.75
2022-07-29T18:24:13.425Z,24.68
2022-07-29T18:25:45.856Z,24.61
2022-07-29T18:27:18.088Z,24.58
2022-07-29T18:28:50.391Z,24.54
2022-07-29T18:30:22.814Z,24.51
2022-07-29T18:31:55.137Z,24.49
2022-07-29T18:33:28.312Z,24.46
2022-07-29T18:35:03.061Z,24.47
2022-07-29T18:36:35.423Z,24.43
2022-07-29T18:38:07.589Z,24.40
2022-07-29T18:39:40.077Z,24.38
2022-07-29T18:41:12.545Z,24.35
2022-07-29T18:42:45.012Z,24.34
2022-07-29T18:44:18.222Z,24.30
2022-07-29T18:45:51.279Z,24.27
2022-07-29T18:47:24.124Z,24.26
2022-07-29T18:49:04.554Z,24.20
2022-07-29T18:50:37.061Z,24.17
2022-07-29T18:52:09.478Z,24.12
2022-07-29T18:53:41.929Z,24.10
2022-07-29T18:55:14.506Z,24.06
2022-07-29T18:56:47.546Z,24.04
2022-07-29T18:58:19.803Z,24.01
2022-07-29T18:59:53.032Z,23.97
2022-07-29T19:01:25.234Z,23.97
2022-07-29T19:03:04.449Z,23.94
2022-07-29T19:04:36.876Z,23.91
2022-07-29T19:06:09.401Z,23.88
2022-07-29T19:07:43.815Z,23.86
2022-07-29T19:09:17.648Z,23.84
2022-07-29T19:10:49.899Z,23.83
2022-07-29T19:12:22.230Z,23.82
2022-07-29T19:13:54.857Z,23.80
2022-07-29T19:15:30.185Z,23.81
2022-07-29T19:17:03.200Z,23.80
2022-07-29T19:18:35.558Z,23.80
2022-07-29T19:20:08.525Z,23.79
2022-07-29T19:21:41.892Z,23.75
2022-07-29T19:23:14.395Z,23.69
2022-07-29T19:24:46.809Z,23.62
2022-07-29T19:26:20.984Z,23.60
2022-07-29T19:27:53.428Z,23.57
2022-07-29T19:29:27.055Z,23.55
2022-07-29T19:30:59.897Z,23.55
2022-07-29T19:32:32.194Z,23.54
2022-07-29T19:34:04.546Z,23.46
2022-07-29T19:35:37.378Z,23.47
2022-07-29T19:37:09.698Z,23.45
2022-07-29T21:48:18.791Z,21.69
2022-07-29T21:49:52.088Z,21.63
2022-07-29T21:51:24.044Z,21.64
2022-07-29T21:52:56.207Z,21.62
2022-07-29T21:54:28.373Z,21.63
2022-07-29T21:56:00.515Z,21.62
2022-07-29T21:57:33.007Z,21.60
2022-07-29T21:59:05.037Z,21.58
2022-07-29T22:00:42.693Z,21.56
2022-07-29T22:02:14.795Z,21.54
2022-07-29T22:03:46.899Z,21.53
2022-07-29T22:05:19.390Z,21.54
2022-07-29T22:06:51.406Z,21.51
2022-07-29T22:08:23.557Z,21.48
2022-07-29T22:09:55.734Z,21.46
2022-07-29T22:11:27.963Z,21.46
2022-07-29T22:13:01.118Z,21.45
2022-07-29T22:14:33.261Z,21.42
2022-07-29T22:16:05.642Z,21.43
2022-07-29T22:17:37.801Z,21.42
2022-07-29T22:19:09.882Z,21.41
2022-07-29T22:20:42.027Z,21.40
2022-07-29T22:22:14.155Z,21.40
2022-07-29T22:23:46.271Z,21.37
2022-07-29T22:25:18.402Z,21.35
2022-07-29T22:26:50.537Z,21.30
2022-07-29T22:28:22.594Z,21.27
2022-07-29T22:29:54.761Z,21.22
2022-07-29T22:31:26.861Z,21.19
2022-07-29T22:32:59.023Z,21.13
2022-07-29T22:34:37.116Z,21.14
2022-07-29T22:36:10.823Z,21.10
2022-07-29T22:37:42.882Z,21.11
2022-07-29T22:39:15.679Z,21.11
2022-07-29T22:40:50.580Z,21.09